RJNO(METAR)
06/26 16:00
RJNO 260700Z 10002KT 9999 FEW045 OVCXXX 24/19 Q1010 RMK A2984=
戻る
トップページへ戻る
IMOC Co,.Ltd.